sensor_id;sensor_type;location;lat;lon;timestamp;P1;durP1;ratioP1;P2;durP2;ratioP2
58659;SDS011;44429;45.110;20.622;2022-09-03T00:00:53;14.93;;;8.45;;
58659;SDS011;44429;45.110;20.622;2022-09-03T00:05:50;15.13;;;8.85;;
58659;SDS011;44429;45.110;20.622;2022-09-03T00:08:32;12.40;;;7.95;;
58659;SDS011;44429;45.110;20.622;2022-09-03T00:13:34;12.40;;;8.32;;
58659;SDS011;44429;45.110;20.622;2022-09-03T00:16:02;13.18;;;7.43;;
58659;SDS011;44429;45.110;20.622;2022-09-03T00:18:34;14.63;;;8.32;;
58659;SDS011;44429;45.110;20.622;2022-09-03T00:21:05;13.05;;;8.38;;
58659;SDS011;44429;45.110;20.622;2022-09-03T00:23:33;13.07;;;8.15;;
58659;SDS011;44429;45.110;20.622;2022-09-03T00:28:41;14.43;;;7.65;;
58659;SDS011;44429;45.110;20.622;2022-09-03T00:31:15;12.90;;;7.63;;
58659;SDS011;44429;45.110;20.622;2022-09-03T00:33:46;14.10;;;7.90;;
58659;SDS011;44429;45.110;20.622;2022-09-03T00:36:22;13.23;;;8.07;;
58659;SDS011;44429;45.110;20.622;2022-09-03T00:38:50;14.48;;;8.05;;
58659;SDS011;44429;45.110;20.622;2022-09-03T00:41:21;15.13;;;8.90;;
58659;SDS011;44429;45.110;20.622;2022-09-03T00:48:52;13.20;;;7.88;;
58659;SDS011;44429;45.110;20.622;2022-09-03T01:20:18;15.65;;;8.13;;
58659;SDS011;44429;45.110;20.622;2022-09-03T01:30:23;14.13;;;8.70;;
58659;SDS011;44429;45.110;20.622;2022-09-03T01:35:40;13.13;;;7.65;;
58659;SDS011;44429;45.110;20.622;2022-09-03T01:38:13;14.10;;;7.80;;
58659;SDS011;44429;45.110;20.622;2022-09-03T01:40:50;14.60;;;8.48;;
58659;SDS011;44429;45.110;20.622;2022-09-03T01:43:22;13.95;;;8.70;;
58659;SDS011;44429;45.110;20.622;2022-09-03T01:51:35;15.00;;;8.60;;
58659;SDS011;44429;45.110;20.622;2022-09-03T01:58:55;14.20;;;9.32;;
58659;SDS011;44429;45.110;20.622;2022-09-03T02:01:36;15.82;;;9.32;;
58659;SDS011;44429;45.110;20.622;2022-09-03T02:04:12;13.88;;;8.88;;
58659;SDS011;44429;45.110;20.622;2022-09-03T02:06:39;17.95;;;9.60;;
58659;SDS011;44429;45.110;20.622;2022-09-03T02:09:05;13.55;;;9.38;;
58659;SDS011;44429;45.110;20.622;2022-09-03T02:11:31;16.77;;;10.07;;
58659;SDS011;44429;45.110;20.622;2022-09-03T02:13:57;16.33;;;9.27;;
58659;SDS011;44429;45.110;20.622;2022-09-03T02:16:26;16.88;;;9.75;;
58659;SDS011;44429;45.110;20.622;2022-09-03T02:18:54;14.50;;;9.75;;
58659;SDS011;44429;45.110;20.622;2022-09-03T02:21:22;17.27;;;10.10;;
58659;SDS011;44429;45.110;20.622;2022-09-03T02:23:49;16.77;;;9.90;;
58659;SDS011;44429;45.110;20.622;2022-09-03T02:26:17;14.18;;;9.27;;
58659;SDS011;44429;45.110;20.622;2022-09-03T02:28:44;14.18;;;9.43;;
58659;SDS011;44429;45.110;20.622;2022-09-03T02:31:10;18.90;;;10.05;;
58659;SDS011;44429;45.110;20.622;2022-09-03T02:33:37;17.58;;;10.02;;
58659;SDS011;44429;45.110;20.622;2022-09-03T02:36:06;15.73;;;8.85;;
58659;SDS011;44429;45.110;20.622;2022-09-03T02:38:33;16.00;;;9.63;;
58659;SDS011;44429;45.110;20.622;2022-09-03T02:40:59;14.95;;;9.25;;
58659;SDS011;44429;45.110;20.622;2022-09-03T02:43:47;14.63;;;9.55;;
58659;SDS011;44429;45.110;20.622;2022-09-03T02:46:13;15.52;;;9.15;;
58659;SDS011;44429;45.110;20.622;2022-09-03T02:48:41;14.48;;;9.00;;
58659;SDS011;44429;45.110;20.622;2022-09-03T02:51:07;14.05;;;9.02;;
58659;SDS011;44429;45.110;20.622;2022-09-03T02:53:33;13.77;;;8.40;;
58659;SDS011;44429;45.110;20.622;2022-09-03T02:56:00;15.73;;;9.20;;
58659;SDS011;44429;45.110;20.622;2022-09-03T02:58:26;15.80;;;8.93;;
58659;SDS011;44429;45.110;20.622;2022-09-03T03:00:53;14.77;;;8.93;;
58659;SDS011;44429;45.110;20.622;2022-09-03T03:03:19;12.40;;;8.38;;
58659;SDS011;44429;45.110;20.622;2022-09-03T03:08:12;12.85;;;8.32;;
58659;SDS011;44429;45.110;20.622;2022-09-03T03:10:39;14.35;;;9.48;;
58659;SDS011;44429;45.110;20.622;2022-09-03T03:13:07;14.82;;;9.50;;
58659;SDS011;44429;45.110;20.622;2022-09-03T03:15:33;11.98;;;8.63;;
58659;SDS011;44429;45.110;20.622;2022-09-03T03:17:59;12.88;;;8.95;;
58659;SDS011;44429;45.110;20.622;2022-09-03T03:20:25;13.98;;;8.60;;
58659;SDS011;44429;45.110;20.622;2022-09-03T03:22:51;13.90;;;9.50;;
58659;SDS011;44429;45.110;20.622;2022-09-03T03:25:17;13.68;;;9.10;;
58659;SDS011;44429;45.110;20.622;2022-09-03T03:27:43;12.80;;;8.88;;
58659;SDS011;44429;45.110;20.622;2022-09-03T03:30:09;14.75;;;9.25;;
58659;SDS011;44429;45.110;20.622;2022-09-03T03:32:36;13.82;;;9.23;;
58659;SDS011;44429;45.110;20.622;2022-09-03T03:35:03;13.82;;;9.18;;
58659;SDS011;44429;45.110;20.622;2022-09-03T03:37:29;15.93;;;9.45;;
58659;SDS011;44429;45.110;20.622;2022-09-03T03:39:55;14.00;;;9.13;;
58659;SDS011;44429;45.110;20.622;2022-09-03T03:42:21;14.10;;;9.60;;
58659;SDS011;44429;45.110;20.622;2022-09-03T03:44:48;14.35;;;10.05;;
58659;SDS011;44429;45.110;20.622;2022-09-03T03:47:14;14.35;;;9.93;;
58659;SDS011;44429;45.110;20.622;2022-09-03T03:49:41;16.00;;;10.35;;
58659;SDS011;44429;45.110;20.622;2022-09-03T03:52:07;13.80;;;9.75;;
58659;SDS011;44429;45.110;20.622;2022-09-03T03:54:33;13.50;;;9.57;;
58659;SDS011;44429;45.110;20.622;2022-09-03T03:56:59;14.15;;;10.23;;
58659;SDS011;44429;45.110;20.622;2022-09-03T03:59:25;14.00;;;10.15;;
58659;SDS011;44429;45.110;20.622;2022-09-03T04:01:54;14.75;;;9.95;;
58659;SDS011;44429;45.110;20.622;2022-09-03T04:04:20;15.32;;;10.40;;
58659;SDS011;44429;45.110;20.622;2022-09-03T04:06:47;14.98;;;10.57;;
58659;SDS011;44429;45.110;20.622;2022-09-03T04:09:13;14.98;;;10.45;;
58659;SDS011;44429;45.110;20.622;2022-09-03T04:11:39;14.38;;;10.48;;
58659;SDS011;44429;45.110;20.622;2022-09-03T04:14:05;15.93;;;10.52;;
58659;SDS011;44429;45.110;20.622;2022-09-03T04:16:31;16.25;;;10.82;;
58659;SDS011;44429;45.110;20.622;2022-09-03T04:18:57;14.13;;;10.18;;
58659;SDS011;44429;45.110;20.622;2022-09-03T04:21:27;16.95;;;11.57;;
58659;SDS011;44429;45.110;20.622;2022-09-03T04:23:54;14.80;;;10.35;;
58659;SDS011;44429;45.110;20.622;2022-09-03T04:26:21;13.82;;;9.90;;
58659;SDS011;44429;45.110;20.622;2022-09-03T04:28:47;15.43;;;10.52;;
58659;SDS011;44429;45.110;20.622;2022-09-03T04:31:14;14.02;;;10.68;;
58659;SDS011;44429;45.110;20.622;2022-09-03T04:33:41;15.70;;;10.23;;
58659;SDS011;44429;45.110;20.622;2022-09-03T04:38:34;16.05;;;10.13;;
58659;SDS011;44429;45.110;20.622;2022-09-03T04:41:00;14.80;;;10.48;;
58659;SDS011;44429;45.110;20.622;2022-09-03T04:43:27;16.38;;;10.98;;
58659;SDS011;44429;45.110;20.622;2022-09-03T04:45:59;15.70;;;9.90;;
58659;SDS011;44429;45.110;20.622;2022-09-03T04:48:26;15.95;;;10.32;;
58659;SDS011;44429;45.110;20.622;2022-09-03T04:50:53;15.75;;;10.82;;
58659;SDS011;44429;45.110;20.622;2022-09-03T04:53:20;16.63;;;11.30;;
58659;SDS011;44429;45.110;20.622;2022-09-03T04:55:47;14.90;;;10.10;;
58659;SDS011;44429;45.110;20.622;2022-09-03T04:58:13;17.40;;;10.57;;
58659;SDS011;44429;45.110;20.622;2022-09-03T05:00:39;16.45;;;10.93;;
58659;SDS011;44429;45.110;20.622;2022-09-03T05:03:05;14.98;;;10.40;;
58659;SDS011;44429;45.110;20.622;2022-09-03T05:05:31;17.08;;;10.77;;
58659;SDS011;44429;45.110;20.622;2022-09-03T05:07:58;16.05;;;10.77;;
58659;SDS011;44429;45.110;20.622;2022-09-03T05:10:25;14.45;;;10.00;;
58659;SDS011;44429;45.110;20.622;2022-09-03T05:13:04;14.05;;;9.93;;
58659;SDS011;44429;45.110;20.622;2022-09-03T05:15:31;14.70;;;10.05;;
58659;SDS011;44429;45.110;20.622;2022-09-03T05:18:00;15.13;;;9.93;;
58659;SDS011;44429;45.110;20.622;2022-09-03T05:20:27;14.15;;;10.25;;
58659;SDS011;44429;45.110;20.622;2022-09-03T05:23:00;13.52;;;9.23;;
58659;SDS011;44429;45.110;20.622;2022-09-03T05:25:26;13.57;;;9.88;;
58659;SDS011;44429;45.110;20.622;2022-09-03T05:27:52;15.45;;;9.80;;
58659;SDS011;44429;45.110;20.622;2022-09-03T05:30:19;17.15;;;10.52;;
58659;SDS011;44429;45.110;20.622;2022-09-03T05:32:47;14.88;;;9.68;;
58659;SDS011;44429;45.110;20.622;2022-09-03T05:35:13;12.68;;;9.55;;
58659;SDS011;44429;45.110;20.622;2022-09-03T05:37:40;17.83;;;10.32;;
58659;SDS011;44429;45.110;20.622;2022-09-03T05:40:06;13.80;;;9.98;;
58659;SDS011;44429;45.110;20.622;2022-09-03T05:42:35;13.93;;;9.00;;
58659;SDS011;44429;45.110;20.622;2022-09-03T05:45:03;13.57;;;10.20;;
58659;SDS011;44429;45.110;20.622;2022-09-03T05:47:30;15.48;;;9.90;;
58659;SDS011;44429;45.110;20.622;2022-09-03T05:49:56;13.48;;;9.40;;
58659;SDS011;44429;45.110;20.622;2022-09-03T05:52:22;15.38;;;9.52;;
58659;SDS011;44429;45.110;20.622;2022-09-03T05:54:48;13.60;;;8.60;;
58659;SDS011;44429;45.110;20.622;2022-09-03T05:57:14;13.73;;;8.98;;
58659;SDS011;44429;45.110;20.622;2022-09-03T05:59:40;14.23;;;9.48;;
58659;SDS011;44429;45.110;20.622;2022-09-03T06:02:06;14.65;;;9.18;;
58659;SDS011;44429;45.110;20.622;2022-09-03T06:04:32;12.40;;;8.57;;
58659;SDS011;44429;45.110;20.622;2022-09-03T06:06:58;13.32;;;8.63;;
58659;SDS011;44429;45.110;20.622;2022-09-03T06:09:24;11.70;;;7.68;;
58659;SDS011;44429;45.110;20.622;2022-09-03T06:11:51;12.55;;;8.57;;
58659;SDS011;44429;45.110;20.622;2022-09-03T06:14:18;14.95;;;8.48;;
58659;SDS011;44429;45.110;20.622;2022-09-03T06:16:45;12.55;;;8.40;;
58659;SDS011;44429;45.110;20.622;2022-09-03T06:19:13;11.95;;;8.40;;
58659;SDS011;44429;45.110;20.622;2022-09-03T06:21:40;14.40;;;8.40;;
58659;SDS011;44429;45.110;20.622;2022-09-03T06:24:07;13.32;;;8.07;;
58659;SDS011;44429;45.110;20.622;2022-09-03T06:26:34;11.68;;;7.45;;
58659;SDS011;44429;45.110;20.622;2022-09-03T06:29:00;12.45;;;7.78;;
58659;SDS011;44429;45.110;20.622;2022-09-03T06:31:26;11.63;;;7.10;;
58659;SDS011;44429;45.110;20.622;2022-09-03T06:33:53;12.57;;;7.50;;
58659;SDS011;44429;45.110;20.622;2022-09-03T06:36:20;14.48;;;8.48;;
58659;SDS011;44429;45.110;20.622;2022-09-03T06:38:46;14.60;;;7.97;;
58659;SDS011;44429;45.110;20.622;2022-09-03T06:41:14;24.15;;;12.68;;
58659;SDS011;44429;45.110;20.622;2022-09-03T06:43:49;15.35;;;8.93;;
58659;SDS011;44429;45.110;20.622;2022-09-03T06:46:16;11.98;;;7.38;;
58659;SDS011;44429;45.110;20.622;2022-09-03T06:48:42;12.38;;;7.40;;
58659;SDS011;44429;45.110;20.622;2022-09-03T06:53:38;11.02;;;6.68;;
58659;SDS011;44429;45.110;20.622;2022-09-03T06:56:06;9.57;;;6.38;;
58659;SDS011;44429;45.110;20.622;2022-09-03T06:58:37;10.05;;;6.78;;
58659;SDS011;44429;45.110;20.622;2022-09-03T07:01:08;10.32;;;6.65;;
58659;SDS011;44429;45.110;20.622;2022-09-03T07:03:34;12.82;;;6.55;;
58659;SDS011;44429;45.110;20.622;2022-09-03T07:06:01;10.98;;;6.78;;
58659;SDS011;44429;45.110;20.622;2022-09-03T07:08:29;9.73;;;5.88;;
58659;SDS011;44429;45.110;20.622;2022-09-03T07:10:57;9.48;;;5.32;;
58659;SDS011;44429;45.110;20.622;2022-09-03T07:13:24;11.10;;;6.03;;
58659;SDS011;44429;45.110;20.622;2022-09-03T07:16:07;9.45;;;5.47;;
58659;SDS011;44429;45.110;20.622;2022-09-03T07:18:33;9.68;;;4.97;;
58659;SDS011;44429;45.110;20.622;2022-09-03T07:21:00;9.60;;;5.38;;
58659;SDS011;44429;45.110;20.622;2022-09-03T07:23:27;9.65;;;5.93;;
58659;SDS011;44429;45.110;20.622;2022-09-03T07:25:58;10.40;;;5.20;;
58659;SDS011;44429;45.110;20.622;2022-09-03T07:28:24;10.05;;;5.95;;
58659;SDS011;44429;45.110;20.622;2022-09-03T07:30:51;9.70;;;5.32;;
58659;SDS011;44429;45.110;20.622;2022-09-03T07:33:17;9.10;;;4.72;;
58659;SDS011;44429;45.110;20.622;2022-09-03T07:35:44;9.80;;;5.78;;
58659;SDS011;44429;45.110;20.622;2022-09-03T07:38:10;9.25;;;5.70;;
58659;SDS011;44429;45.110;20.622;2022-09-03T07:40:37;11.55;;;5.30;;
58659;SDS011;44429;45.110;20.622;2022-09-03T07:43:03;10.75;;;5.03;;
58659;SDS011;44429;45.110;20.622;2022-09-03T07:45:30;10.40;;;5.55;;
58659;SDS011;44429;45.110;20.622;2022-09-03T07:47:57;13.27;;;6.07;;
58659;SDS011;44429;45.110;20.622;2022-09-03T07:50:24;11.23;;;5.78;;
58659;SDS011;44429;45.110;20.622;2022-09-03T07:52:56;12.30;;;6.22;;
58659;SDS011;44429;45.110;20.622;2022-09-03T07:55:23;11.00;;;6.18;;
58659;SDS011;44429;45.110;20.622;2022-09-03T07:57:49;15.02;;;6.28;;
58659;SDS011;44429;45.110;20.622;2022-09-03T08:00:15;11.15;;;6.15;;
58659;SDS011;44429;45.110;20.622;2022-09-03T08:02:42;9.57;;;6.15;;
58659;SDS011;44429;45.110;20.622;2022-09-03T08:05:08;10.98;;;5.90;;
58659;SDS011;44429;45.110;20.622;2022-09-03T08:07:34;10.63;;;6.47;;
58659;SDS011;44429;45.110;20.622;2022-09-03T08:10:00;9.77;;;6.32;;
58659;SDS011;44429;45.110;20.622;2022-09-03T08:12:26;11.57;;;6.53;;
58659;SDS011;44429;45.110;20.622;2022-09-03T08:14:53;10.93;;;6.00;;
58659;SDS011;44429;45.110;20.622;2022-09-03T08:17:21;11.32;;;6.57;;
58659;SDS011;44429;45.110;20.622;2022-09-03T08:19:47;9.18;;;5.90;;
58659;SDS011;44429;45.110;20.622;2022-09-03T08:22:13;9.98;;;5.50;;
58659;SDS011;44429;45.110;20.622;2022-09-03T08:24:39;8.88;;;5.22;;
58659;SDS011;44429;45.110;20.622;2022-09-03T08:27:06;10.20;;;4.95;;
58659;SDS011;44429;45.110;20.622;2022-09-03T08:29:32;9.70;;;4.47;;
58659;SDS011;44429;45.110;20.622;2022-09-03T08:31:58;9.02;;;4.40;;
58659;SDS011;44429;45.110;20.622;2022-09-03T08:34:25;7.95;;;4.13;;
58659;SDS011;44429;45.110;20.622;2022-09-03T08:36:51;8.02;;;4.53;;
58659;SDS011;44429;45.110;20.622;2022-09-03T08:39:18;8.75;;;4.90;;
58659;SDS011;44429;45.110;20.622;2022-09-03T08:51:50;8.85;;;3.95;;
58659;SDS011;44429;45.110;20.622;2022-09-03T08:54:19;9.00;;;3.85;;
58659;SDS011;44429;45.110;20.622;2022-09-03T08:56:46;8.57;;;4.43;;
58659;SDS011;44429;45.110;20.622;2022-09-03T08:59:13;7.43;;;3.85;;
58659;SDS011;44429;45.110;20.622;2022-09-03T09:01:49;13.02;;;5.55;;
58659;SDS011;44429;45.110;20.622;2022-09-03T09:06:59;12.95;;;5.75;;
58659;SDS011;44429;45.110;20.622;2022-09-03T09:12:17;10.57;;;5.07;;
58659;SDS011;44429;45.110;20.622;2022-09-03T09:22:43;9.65;;;5.60;;
58659;SDS011;44429;45.110;20.622;2022-09-03T09:25:19;10.55;;;5.50;;
58659;SDS011;44429;45.110;20.622;2022-09-03T09:28:31;9.70;;;5.00;;
58659;SDS011;44429;45.110;20.622;2022-09-03T09:30:32;9.63;;;4.85;;
58659;SDS011;44429;45.110;20.622;2022-09-03T09:32:58;8.60;;;5.10;;
58659;SDS011;44429;45.110;20.622;2022-09-03T09:35:24;9.13;;;4.28;;
58659;SDS011;44429;45.110;20.622;2022-09-03T09:37:52;9.50;;;4.00;;
58659;SDS011;44429;45.110;20.622;2022-09-03T09:40:29;9.45;;;4.20;;
58659;SDS011;44429;45.110;20.622;2022-09-03T09:43:10;7.88;;;4.25;;
58659;SDS011;44429;45.110;20.622;2022-09-03T09:45:38;8.07;;;4.28;;
58659;SDS011;44429;45.110;20.622;2022-09-03T09:48:07;9.15;;;4.00;;
58659;SDS011;44429;45.110;20.622;2022-09-03T09:50:34;7.90;;;3.55;;
58659;SDS011;44429;45.110;20.622;2022-09-03T09:53:02;8.90;;;4.40;;
58659;SDS011;44429;45.110;20.622;2022-09-03T09:55:32;9.27;;;4.18;;
58659;SDS011;44429;45.110;20.622;2022-09-03T09:58:05;9.00;;;4.55;;
58659;SDS011;44429;45.110;20.622;2022-09-03T10:00:33;8.00;;;3.85;;
58659;SDS011;44429;45.110;20.622;2022-09-03T10:03:05;8.88;;;4.05;;
58659;SDS011;44429;45.110;20.622;2022-09-03T10:05:32;8.75;;;4.18;;
58659;SDS011;44429;45.110;20.622;2022-09-03T10:08:01;11.02;;;4.72;;
58659;SDS011;44429;45.110;20.622;2022-09-03T10:10:29;7.60;;;3.90;;
58659;SDS011;44429;45.110;20.622;2022-09-03T10:21:05;8.38;;;4.00;;
58659;SDS011;44429;45.110;20.622;2022-09-03T10:23:48;7.57;;;3.92;;
58659;SDS011;44429;45.110;20.622;2022-09-03T10:26:19;8.35;;;4.47;;
58659;SDS011;44429;45.110;20.622;2022-09-03T10:28:55;7.45;;;3.70;;
58659;SDS011;44429;45.110;20.622;2022-09-03T10:36:33;8.55;;;3.70;;
58659;SDS011;44429;45.110;20.622;2022-09-03T10:41:59;7.97;;;3.70;;
58659;SDS011;44429;45.110;20.622;2022-09-03T10:47:09;8.95;;;4.22;;
58659;SDS011;44429;45.110;20.622;2022-09-03T10:49:43;8.50;;;3.25;;
58659;SDS011;44429;45.110;20.622;2022-09-03T10:55:02;9.68;;;3.95;;
58659;SDS011;44429;45.110;20.622;2022-09-03T11:00:15;7.30;;;3.20;;
58659;SDS011;44429;45.110;20.622;2022-09-03T11:07:42;10.50;;;4.38;;
58659;SDS011;44429;45.110;20.622;2022-09-03T11:10:11;12.18;;;5.13;;
58659;SDS011;44429;45.110;20.622;2022-09-03T11:12:43;9.30;;;3.92;;
58659;SDS011;44429;45.110;20.622;2022-09-03T11:17:40;8.55;;;4.28;;
58659;SDS011;44429;45.110;20.622;2022-09-03T11:20:13;10.27;;;4.53;;
58659;SDS011;44429;45.110;20.622;2022-09-03T11:22:41;9.20;;;3.83;;
58659;SDS011;44429;45.110;20.622;2022-09-03T11:25:08;7.63;;;3.95;;
58659;SDS011;44429;45.110;20.622;2022-09-03T11:30:12;7.25;;;3.72;;
58659;SDS011;44429;45.110;20.622;2022-09-03T11:35:15;6.78;;;3.30;;
58659;SDS011;44429;45.110;20.622;2022-09-03T11:38:24;7.53;;;3.53;;
58659;SDS011;44429;45.110;20.622;2022-09-03T11:43:09;7.63;;;3.08;;
58659;SDS011;44429;45.110;20.622;2022-09-03T11:45:37;7.63;;;2.92;;
58659;SDS011;44429;45.110;20.622;2022-09-03T11:50:52;6.97;;;2.88;;
58659;SDS011;44429;45.110;20.622;2022-09-03T12:00:49;6.25;;;2.88;;
58659;SDS011;44429;45.110;20.622;2022-09-03T12:03:50;7.38;;;3.03;;
58659;SDS011;44429;45.110;20.622;2022-09-03T12:09:15;6.65;;;2.90;;
58659;SDS011;44429;45.110;20.622;2022-09-03T12:14:18;6.18;;;2.75;;
58659;SDS011;44429;45.110;20.622;2022-09-03T12:17:07;6.85;;;2.85;;
58659;SDS011;44429;45.110;20.622;2022-09-03T12:19:39;7.78;;;3.38;;
58659;SDS011;44429;45.110;20.622;2022-09-03T12:22:06;6.95;;;2.80;;
58659;SDS011;44429;45.110;20.622;2022-09-03T12:24:37;7.10;;;3.33;;
58659;SDS011;44429;45.110;20.622;2022-09-03T12:27:04;8.18;;;2.75;;
58659;SDS011;44429;45.110;20.622;2022-09-03T12:29:30;7.07;;;2.88;;
58659;SDS011;44429;45.110;20.622;2022-09-03T12:32:04;6.68;;;2.40;;
58659;SDS011;44429;45.110;20.622;2022-09-03T12:34:31;7.78;;;2.83;;
58659;SDS011;44429;45.110;20.622;2022-09-03T12:36:57;7.38;;;2.53;;
58659;SDS011;44429;45.110;20.622;2022-09-03T12:39:24;7.22;;;2.70;;
58659;SDS011;44429;45.110;20.622;2022-09-03T12:44:23;6.70;;;2.67;;
58659;SDS011;44429;45.110;20.622;2022-09-03T12:47:12;7.30;;;3.00;;
58659;SDS011;44429;45.110;20.622;2022-09-03T12:49:42;7.35;;;3.05;;
58659;SDS011;44429;45.110;20.622;2022-09-03T12:52:11;6.78;;;2.67;;
58659;SDS011;44429;45.110;20.622;2022-09-03T12:54:42;7.53;;;2.60;;
58659;SDS011;44429;45.110;20.622;2022-09-03T12:57:12;8.05;;;2.65;;
58659;SDS011;44429;45.110;20.622;2022-09-03T12:59:41;5.80;;;2.53;;
58659;SDS011;44429;45.110;20.622;2022-09-03T13:02:18;6.55;;;2.78;;
58659;SDS011;44429;45.110;20.622;2022-09-03T13:04:45;7.13;;;2.75;;
58659;SDS011;44429;45.110;20.622;2022-09-03T13:07:26;6.10;;;2.67;;
58659;SDS011;44429;45.110;20.622;2022-09-03T13:09:57;8.23;;;2.83;;
58659;SDS011;44429;45.110;20.622;2022-09-03T13:12:29;7.15;;;2.50;;
58659;SDS011;44429;45.110;20.622;2022-09-03T13:14:56;6.90;;;2.30;;
58659;SDS011;44429;45.110;20.622;2022-09-03T13:22:24;7.00;;;2.58;;
58659;SDS011;44429;45.110;20.622;2022-09-03T13:32:36;26.75;;;17.98;;
58659;SDS011;44429;45.110;20.622;2022-09-03T13:37:44;6.32;;;2.85;;
58659;SDS011;44429;45.110;20.622;2022-09-03T13:42:57;26.05;;;14.57;;
58659;SDS011;44429;45.110;20.622;2022-09-03T13:45:40;8.77;;;4.35;;
58659;SDS011;44429;45.110;20.622;2022-09-03T13:51:02;6.25;;;2.38;;
58659;SDS011;44429;45.110;20.622;2022-09-03T13:56:35;6.40;;;2.35;;
58659;SDS011;44429;45.110;20.622;2022-09-03T13:59:18;6.65;;;2.15;;
58659;SDS011;44429;45.110;20.622;2022-09-03T14:01:52;6.07;;;2.40;;
58659;SDS011;44429;45.110;20.622;2022-09-03T14:07:10;6.25;;;2.50;;
58659;SDS011;44429;45.110;20.622;2022-09-03T14:09:41;5.97;;;2.40;;
58659;SDS011;44429;45.110;20.622;2022-09-03T14:12:18;6.93;;;2.20;;
58659;SDS011;44429;45.110;20.622;2022-09-03T14:15:33;6.70;;;2.17;;
58659;SDS011;44429;45.110;20.622;2022-09-03T14:17:45;6.15;;;2.47;;
58659;SDS011;44429;45.110;20.622;2022-09-03T14:20:19;6.93;;;2.17;;
58659;SDS011;44429;45.110;20.622;2022-09-03T14:22:52;7.38;;;2.10;;
58659;SDS011;44429;45.110;20.622;2022-09-03T14:25:21;6.78;;;2.35;;
58659;SDS011;44429;45.110;20.622;2022-09-03T14:27:48;5.72;;;1.92;;
58659;SDS011;44429;45.110;20.622;2022-09-03T14:30:25;6.13;;;2.17;;
58659;SDS011;44429;45.110;20.622;2022-09-03T14:35:34;7.03;;;2.38;;
58659;SDS011;44429;45.110;20.622;2022-09-03T14:40:41;5.32;;;1.95;;
58659;SDS011;44429;45.110;20.622;2022-09-03T15:01:38;5.60;;;1.98;;
58659;SDS011;44429;45.110;20.622;2022-09-03T15:12:39;5.30;;;1.60;;
58659;SDS011;44429;45.110;20.622;2022-09-03T15:15:09;5.55;;;2.05;;
58659;SDS011;44429;45.110;20.622;2022-09-03T15:17:43;6.85;;;2.42;;
58659;SDS011;44429;45.110;20.622;2022-09-03T15:36:45;5.80;;;2.10;;
58659;SDS011;44429;45.110;20.622;2022-09-03T15:39:19;7.57;;;2.20;;
58659;SDS011;44429;45.110;20.622;2022-09-03T15:41:51;5.88;;;2.00;;
58659;SDS011;44429;45.110;20.622;2022-09-03T15:44:20;6.72;;;2.50;;
58659;SDS011;44429;45.110;20.622;2022-09-03T15:46:51;5.97;;;2.17;;
58659;SDS011;44429;45.110;20.622;2022-09-03T15:55:10;7.05;;;2.10;;
58659;SDS011;44429;45.110;20.622;2022-09-03T16:00:20;5.72;;;1.83;;
58659;SDS011;44429;45.110;20.622;2022-09-03T16:02:49;5.80;;;2.25;;
58659;SDS011;44429;45.110;20.622;2022-09-03T16:08:01;6.13;;;2.05;;
58659;SDS011;44429;45.110;20.622;2022-09-03T16:10:51;5.43;;;2.15;;
58659;SDS011;44429;45.110;20.622;2022-09-03T16:18:51;7.40;;;2.00;;
58659;SDS011;44429;45.110;20.622;2022-09-03T16:21:13;6.15;;;2.20;;
58659;SDS011;44429;45.110;20.622;2022-09-03T16:23:57;6.82;;;2.00;;
58659;SDS011;44429;45.110;20.622;2022-09-03T16:26:34;5.88;;;1.90;;
58659;SDS011;44429;45.110;20.622;2022-09-03T16:29:06;5.70;;;1.83;;
58659;SDS011;44429;45.110;20.622;2022-09-03T16:31:42;5.45;;;1.85;;
58659;SDS011;44429;45.110;20.622;2022-09-03T17:00:13;5.30;;;1.90;;
58659;SDS011;44429;45.110;20.622;2022-09-03T17:10:39;5.35;;;1.95;;
58659;SDS011;44429;45.110;20.622;2022-09-03T17:28:42;8.23;;;5.20;;
58659;SDS011;44429;45.110;20.622;2022-09-03T17:34:12;6.18;;;2.75;;
58659;SDS011;44429;45.110;20.622;2022-09-03T17:36:49;5.63;;;1.80;;
58659;SDS011;44429;45.110;20.622;2022-09-03T17:40:01;9.27;;;2.38;;
58659;SDS011;44429;45.110;20.622;2022-09-03T17:42:17;5.40;;;1.83;;
58659;SDS011;44429;45.110;20.622;2022-09-03T17:52:44;15.82;;;9.38;;
58659;SDS011;44429;45.110;20.622;2022-09-03T17:57:44;11.88;;;7.40;;
58659;SDS011;44429;45.110;20.622;2022-09-03T18:00:20;8.02;;;3.90;;
58659;SDS011;44429;45.110;20.622;2022-09-03T18:10:31;6.03;;;2.22;;
58659;SDS011;44429;45.110;20.622;2022-09-03T18:18:23;6.50;;;3.10;;
58659;SDS011;44429;45.110;20.622;2022-09-03T18:20:50;5.70;;;2.28;;
58659;SDS011;44429;45.110;20.622;2022-09-03T18:23:56;6.10;;;2.17;;
58659;SDS011;44429;45.110;20.622;2022-09-03T18:26:43;5.32;;;1.83;;
58659;SDS011;44429;45.110;20.622;2022-09-03T18:29:33;6.72;;;2.85;;
58659;SDS011;44429;45.110;20.622;2022-09-03T18:32:19;18.70;;;14.60;;
58659;SDS011;44429;45.110;20.622;2022-09-03T18:35:06;12.00;;;9.98;;
58659;SDS011;44429;45.110;20.622;2022-09-03T18:37:51;7.25;;;4.18;;
58659;SDS011;44429;45.110;20.622;2022-09-03T18:46:31;7.28;;;2.80;;
58659;SDS011;44429;45.110;20.622;2022-09-03T18:49:37;6.20;;;2.70;;
58659;SDS011;44429;45.110;20.622;2022-09-03T18:55:40;7.53;;;2.80;;
58659;SDS011;44429;45.110;20.622;2022-09-03T19:01:39;7.53;;;3.30;;
58659;SDS011;44429;45.110;20.622;2022-09-03T19:10:21;6.20;;;2.60;;
58659;SDS011;44429;45.110;20.622;2022-09-03T19:13:12;7.45;;;2.58;;
58659;SDS011;44429;45.110;20.622;2022-09-03T19:18:52;8.27;;;2.70;;
58659;SDS011;44429;45.110;20.622;2022-09-03T19:25:05;6.32;;;2.50;;
58659;SDS011;44429;45.110;20.622;2022-09-03T19:30:58;7.97;;;4.00;;
58659;SDS011;44429;45.110;20.622;2022-09-03T19:39:41;8.45;;;3.92;;
58659;SDS011;44429;45.110;20.622;2022-09-03T19:45:47;7.63;;;3.53;;
58659;SDS011;44429;45.110;20.622;2022-09-03T19:51:22;22.95;;;14.52;;
58659;SDS011;44429;45.110;20.622;2022-09-03T19:54:08;16.80;;;10.52;;
58659;SDS011;44429;45.110;20.622;2022-09-03T19:56:53;9.32;;;5.25;;
58659;SDS011;44429;45.110;20.622;2022-09-03T19:59:39;9.07;;;4.78;;
58659;SDS011;44429;45.110;20.622;2022-09-03T20:02:24;9.20;;;4.40;;
58659;SDS011;44429;45.110;20.622;2022-09-03T20:05:09;7.72;;;3.85;;
58659;SDS011;44429;45.110;20.622;2022-09-03T20:07:55;8.65;;;4.10;;
58659;SDS011;44429;45.110;20.622;2022-09-03T20:10:40;7.95;;;4.20;;
58659;SDS011;44429;45.110;20.622;2022-09-03T20:13:11;16.00;;;10.43;;
58659;SDS011;44429;45.110;20.622;2022-09-03T20:20:45;24.33;;;16.80;;
58659;SDS011;44429;45.110;20.622;2022-09-03T20:23:21;19.65;;;11.77;;
58659;SDS011;44429;45.110;20.622;2022-09-03T20:26:05;11.18;;;6.40;;
58659;SDS011;44429;45.110;20.622;2022-09-03T20:31:57;9.13;;;4.75;;
58659;SDS011;44429;45.110;20.622;2022-09-03T20:34:16;8.57;;;4.32;;
58659;SDS011;44429;45.110;20.622;2022-09-03T20:39:48;8.20;;;3.97;;
58659;SDS011;44429;45.110;20.622;2022-09-03T20:52:50;7.88;;;3.65;;
58659;SDS011;44429;45.110;20.622;2022-09-03T20:57:50;7.10;;;3.42;;
58659;SDS011;44429;45.110;20.622;2022-09-03T21:00:21;7.93;;;3.97;;
58659;SDS011;44429;45.110;20.622;2022-09-03T21:02:58;7.18;;;3.40;;
58659;SDS011;44429;45.110;20.622;2022-09-03T21:05:30;7.80;;;3.67;;
58659;SDS011;44429;45.110;20.622;2022-09-03T21:15:44;8.95;;;3.92;;
58659;SDS011;44429;45.110;20.622;2022-09-03T21:20:51;7.65;;;3.78;;